createdAt,value
2023-05-06T00:01:49.679Z,22.52
2023-05-06T00:04:16.024Z,23.45
2023-05-06T00:06:42.422Z,21.77
2023-05-06T00:09:08.733Z,22.35
2023-05-06T00:11:35.047Z,20.48
2023-05-06T00:14:01.376Z,21.58
2023-05-06T00:16:27.877Z,22.58
2023-05-06T00:18:54.229Z,22.73
2023-05-06T00:21:20.540Z,22.55
2023-05-06T00:23:46.845Z,24.08
2023-05-06T00:26:13.195Z,20.98
2023-05-06T00:28:39.542Z,22.08
2023-05-06T00:31:05.909Z,22.55
2023-05-06T00:33:32.225Z,21.95
2023-05-06T00:35:58.735Z,22.13
2023-05-06T00:38:25.073Z,23.67
2023-05-06T00:40:51.403Z,25.15
2023-05-06T00:43:17.757Z,24.52
2023-05-06T00:45:44.267Z,24.50
2023-05-06T00:48:10.768Z,24.77
2023-05-06T00:50:40.362Z,25.00
2023-05-06T00:53:08.464Z,26.08
2023-05-06T00:55:35.383Z,23.13
2023-05-06T00:58:01.781Z,24.48
2023-05-06T01:00:28.254Z,23.23
2023-05-06T01:02:54.667Z,25.17
2023-05-06T01:05:23.598Z,24.17
2023-05-06T01:08:08.640Z,24.85
2023-05-06T01:10:55.744Z,25.80
2023-05-06T01:13:34.735Z,25.00
2023-05-06T01:16:02.539Z,24.55
2023-05-06T01:18:32.575Z,26.08
2023-05-06T01:21:00.216Z,24.83
2023-05-06T01:23:26.577Z,25.77
2023-05-06T01:25:52.931Z,23.67
2023-05-06T01:28:19.245Z,26.70
2023-05-06T01:30:54.754Z,26.50
2023-05-06T01:33:36.966Z,27.25
2023-05-06T01:36:11.360Z,26.95
2023-05-06T01:38:57.667Z,27.33
2023-05-06T01:41:25.094Z,26.33
2023-05-06T01:43:53.362Z,25.90
2023-05-06T01:46:21.783Z,26.08
2023-05-06T01:48:54.369Z,25.98
2023-05-06T01:51:21.888Z,27.10
2023-05-06T01:53:48.293Z,27.38
2023-05-06T01:56:14.938Z,27.20
2023-05-06T01:58:41.236Z,28.00
2023-05-06T02:01:07.549Z,27.17
2023-05-06T02:03:33.908Z,27.85
2023-05-06T02:06:00.266Z,27.33
2023-05-06T02:08:26.573Z,28.50
2023-05-06T02:10:52.920Z,24.73
2023-05-06T02:13:19.321Z,24.98
2023-05-06T02:15:45.827Z,24.88
2023-05-06T02:18:12.135Z,26.38
2023-05-06T02:20:38.461Z,26.25
2023-05-06T02:23:04.768Z,26.23
2023-05-06T02:25:31.087Z,25.70
2023-05-06T02:27:57.382Z,26.65
2023-05-06T02:30:23.704Z,26.42
2023-05-06T02:32:50.053Z,24.83
2023-05-06T02:35:16.466Z,25.85
2023-05-06T02:37:42.770Z,25.60
2023-05-06T02:40:09.354Z,24.42
2023-05-06T02:42:35.749Z,25.02
2023-05-06T02:45:02.213Z,27.67
2023-05-06T02:47:28.621Z,26.50
2023-05-06T02:49:55.040Z,25.63
2023-05-06T02:52:21.353Z,24.73
2023-05-06T02:54:47.669Z,25.38
2023-05-06T02:57:14.034Z,23.65
2023-05-06T02:59:40.383Z,24.38
2023-05-06T03:02:06.813Z,22.55
2023-05-06T03:04:33.399Z,23.55
2023-05-06T03:06:59.860Z,26.02
2023-05-06T03:09:26.167Z,24.60
2023-05-06T03:11:52.500Z,25.98
2023-05-06T03:14:18.823Z,26.20
2023-05-06T03:16:45.177Z,24.95
2023-05-06T03:19:11.500Z,25.35
2023-05-06T03:21:37.871Z,25.55
2023-05-06T03:24:04.477Z,27.95
2023-05-06T03:26:30.792Z,23.55
2023-05-06T03:28:57.087Z,24.38
2023-05-06T03:31:23.519Z,23.40
2023-05-06T03:33:49.887Z,22.15
2023-05-06T03:36:16.192Z,22.30
2023-05-06T03:38:42.512Z,21.90
2023-05-06T03:41:08.911Z,23.42
2023-05-06T03:43:35.309Z,22.67
2023-05-06T03:46:01.707Z,22.90
2023-05-06T03:48:28.045Z,24.85
2023-05-06T03:50:54.472Z,26.23
2023-05-06T03:53:21.304Z,25.55
2023-05-06T03:55:47.603Z,24.70
2023-05-06T03:58:13.936Z,27.65
2023-05-06T04:00:40.259Z,26.27
2023-05-06T04:03:06.634Z,26.40
2023-05-06T04:05:32.973Z,26.73
2023-05-06T04:07:59.358Z,24.42
2023-05-06T04:10:25.688Z,26.80
2023-05-06T04:12:52.021Z,28.50
2023-05-06T04:15:18.504Z,27.60
2023-05-06T04:17:44.852Z,30.17
2023-05-06T04:20:11.639Z,26.13
2023-05-06T04:22:38.257Z,26.10
2023-05-06T04:25:05.052Z,27.58
2023-05-06T04:27:31.350Z,28.70
2023-05-06T04:29:58.242Z,29.10
2023-05-06T04:32:24.680Z,26.17
2023-05-06T04:34:52.151Z,25.05
2023-05-06T04:37:18.528Z,24.92
2023-05-06T04:39:44.941Z,23.23
2023-05-06T04:42:11.266Z,27.05
2023-05-06T04:44:37.555Z,24.13
2023-05-06T04:47:03.910Z,24.92
2023-05-06T04:49:30.268Z,23.95
2023-05-06T04:51:57.266Z,24.50
2023-05-06T04:54:23.866Z,21.55
2023-05-06T04:56:50.705Z,19.08
2023-05-06T04:59:17.076Z,17.40
2023-05-06T05:01:43.597Z,17.77
2023-05-06T05:04:10.034Z,17.25
2023-05-06T05:06:36.335Z,18.60
2023-05-06T05:09:02.707Z,20.48
2023-05-06T05:11:29.022Z,18.50
2023-05-06T05:13:57.155Z,20.77
2023-05-06T05:16:24.677Z,20.25
2023-05-06T05:18:51.015Z,19.00
2023-05-06T05:21:17.330Z,18.73
2023-05-06T05:23:43.652Z,18.58
2023-05-06T05:26:10.040Z,16.92
2023-05-06T05:28:36.350Z,15.80
2023-05-06T05:31:06.580Z,14.98
2023-05-06T05:33:34.213Z,14.95
2023-05-06T05:36:00.644Z,14.68
2023-05-06T05:38:26.971Z,14.85
2023-05-06T05:40:53.267Z,13.95
2023-05-06T05:43:19.566Z,16.52
2023-05-06T05:45:45.988Z,14.20
2023-05-06T05:48:12.287Z,12.60
2023-05-06T05:50:39.241Z,15.05
2023-05-06T05:53:05.556Z,14.32
2023-05-06T05:55:31.875Z,11.80
2023-05-06T05:57:58.268Z,11.80
2023-05-06T06:00:24.662Z,12.85
2023-05-06T06:02:51.039Z,13.68
2023-05-06T06:05:17.470Z,13.20
2023-05-06T06:07:43.826Z,14.10
2023-05-06T06:10:10.230Z,12.88
2023-05-06T06:12:36.627Z,11.90
2023-05-06T06:15:03.101Z,12.80
2023-05-06T06:17:29.425Z,14.07
2023-05-06T06:19:55.735Z,14.43
2023-05-06T06:22:22.037Z,14.25
2023-05-06T06:24:48.324Z,14.52
2023-05-06T06:27:14.631Z,14.88
2023-05-06T06:29:40.937Z,14.82
2023-05-06T06:32:07.301Z,14.60
2023-05-06T06:34:33.615Z,13.77
2023-05-06T06:36:59.920Z,13.75
2023-05-06T06:39:26.214Z,13.45
2023-05-06T06:41:52.525Z,13.40
2023-05-06T06:44:18.830Z,13.73
2023-05-06T06:46:45.144Z,13.55
2023-05-06T06:49:11.470Z,13.40
2023-05-06T06:51:37.808Z,14.75
2023-05-06T06:54:04.123Z,13.82
2023-05-06T06:56:30.446Z,13.18
2023-05-06T06:58:56.749Z,15.27
2023-05-06T07:01:23.143Z,12.57
2023-05-06T07:03:49.519Z,14.13
2023-05-06T07:06:15.840Z,15.70
2023-05-06T07:08:42.151Z,15.98
2023-05-06T07:11:08.476Z,14.48
2023-05-06T07:13:34.839Z,14.88
2023-05-06T07:16:01.170Z,15.02
2023-05-06T07:18:27.515Z,14.18
2023-05-06T07:20:53.801Z,13.00
2023-05-06T07:23:20.107Z,13.40
2023-05-06T07:25:46.392Z,14.60
2023-05-06T07:28:12.764Z,15.02
2023-05-06T07:30:39.128Z,14.68
2023-05-06T07:33:05.561Z,15.38
2023-05-06T07:35:31.894Z,13.90
2023-05-06T07:37:58.237Z,13.95
2023-05-06T07:40:24.642Z,13.93
2023-05-06T07:42:50.995Z,13.38
2023-05-06T07:45:17.459Z,13.32
2023-05-06T07:47:43.840Z,14.25
2023-05-06T07:50:10.681Z,13.40
2023-05-06T07:52:37.046Z,14.55
2023-05-06T07:55:03.594Z,13.18
2023-05-06T07:57:29.920Z,13.70
2023-05-06T07:59:56.226Z,12.63
2023-05-06T08:02:22.661Z,12.68
2023-05-06T08:04:51.527Z,12.38
2023-05-06T08:07:18.138Z,12.93
2023-05-06T08:09:44.672Z,13.52
2023-05-06T08:12:10.992Z,12.10
2023-05-06T08:14:37.294Z,11.75
2023-05-06T08:17:03.756Z,11.75
2023-05-06T08:19:30.084Z,11.18
2023-05-06T08:21:56.403Z,9.57
2023-05-06T08:24:22.727Z,11.68
2023-05-06T08:26:49.026Z,12.13
2023-05-06T08:29:15.359Z,10.57
2023-05-06T08:31:42.635Z,11.10
2023-05-06T08:34:08.960Z,12.00
2023-05-06T08:36:35.284Z,11.77
2023-05-06T08:39:01.615Z,11.95
2023-05-06T08:41:30.243Z,11.65
2023-05-06T08:43:58.207Z,12.43
2023-05-06T08:46:24.623Z,11.70
2023-05-06T08:48:51.179Z,11.63
2023-05-06T08:51:18.538Z,12.73
2023-05-06T08:53:48.566Z,12.02
2023-05-06T08:56:15.351Z,10.93
2023-05-06T08:58:44.824Z,10.75
2023-05-06T09:01:11.331Z,10.82
2023-05-06T09:03:37.696Z,10.52
2023-05-06T09:06:05.047Z,9.65
2023-05-06T09:08:31.344Z,9.10
2023-05-06T09:10:57.654Z,9.23
2023-05-06T09:13:23.947Z,9.43
2023-05-06T09:15:54.061Z,8.05
2023-05-06T09:18:20.550Z,10.00
2023-05-06T09:20:48.840Z,8.63
2023-05-06T09:23:17.313Z,8.73
2023-05-06T09:25:45.060Z,8.18
2023-05-06T09:28:12.873Z,7.05
2023-05-06T09:30:44.557Z,7.30
2023-05-06T09:33:11.993Z,7.00
2023-05-06T09:35:40.887Z,6.07
2023-05-06T09:38:08.101Z,5.55
2023-05-06T09:40:35.687Z,5.95
2023-05-06T09:43:03.272Z,6.15
2023-05-06T09:45:29.797Z,6.50
2023-05-06T09:47:57.131Z,5.78
2023-05-06T09:50:24.651Z,5.47
2023-05-06T09:52:51.336Z,4.97
2023-05-06T09:55:20.587Z,4.60
2023-05-06T09:57:48.604Z,4.40
2023-05-06T10:00:16.097Z,3.30
2023-05-06T10:02:44.121Z,3.90
2023-05-06T10:05:12.459Z,2.53
2023-05-06T10:07:40.196Z,4.28
2023-05-06T10:10:09.464Z,4.43
2023-05-06T10:12:36.957Z,4.38
2023-05-06T10:15:04.395Z,4.75
2023-05-06T10:17:31.873Z,4.60
2023-05-06T10:20:00.340Z,5.18
2023-05-06T10:22:41.241Z,5.00
2023-05-06T10:25:15.418Z,5.38
2023-05-06T10:27:42.618Z,4.60
2023-05-06T10:30:10.297Z,4.30
2023-05-06T10:32:41.730Z,4.13
2023-05-06T10:35:38.358Z,4.07
2023-05-06T10:38:11.083Z,3.70
2023-05-06T10:40:37.642Z,3.20
2023-05-06T10:43:23.476Z,3.15
2023-05-06T10:46:09.023Z,3.53
2023-05-06T10:48:37.398Z,2.72
2023-05-06T10:51:21.481Z,2.65
2023-05-06T10:54:04.027Z,2.63
2023-05-06T10:56:48.793Z,2.88
2023-05-06T10:59:16.095Z,2.72
2023-05-06T11:01:43.820Z,3.08
2023-05-06T11:04:19.221Z,3.08
2023-05-06T11:06:47.636Z,3.30
2023-05-06T11:09:20.093Z,2.45
2023-05-06T11:11:59.011Z,2.60
2023-05-06T11:14:34.300Z,2.45
2023-05-06T11:17:02.865Z,2.90
2023-05-06T11:19:31.416Z,3.22
2023-05-06T11:22:00.177Z,3.63
2023-05-06T11:24:28.422Z,2.13
2023-05-06T11:26:59.613Z,2.25
2023-05-06T11:29:26.627Z,2.83
2023-05-06T11:31:53.207Z,2.25
2023-05-06T11:34:29.924Z,2.80
2023-05-06T11:36:59.556Z,3.05
2023-05-06T11:39:26.444Z,3.65
2023-05-06T11:41:53.403Z,4.03
2023-05-06T11:44:27.463Z,3.70
2023-05-06T11:46:58.674Z,4.00
2023-05-06T11:49:25.315Z,3.55
2023-05-06T11:51:51.644Z,4.00
2023-05-06T11:54:17.957Z,4.35
2023-05-06T11:56:52.722Z,5.00
2023-05-06T12:01:56.989Z,3.80
2023-05-06T12:04:23.339Z,3.80
2023-05-06T12:06:49.977Z,3.80
2023-05-06T12:09:16.500Z,4.07
2023-05-06T12:11:44.944Z,5.25
2023-05-06T12:14:11.826Z,5.07
2023-05-06T12:16:38.706Z,5.18
2023-05-06T12:19:05.293Z,4.60
2023-05-06T12:21:31.663Z,4.63
2023-05-06T12:24:01.449Z,4.07
2023-05-06T12:26:28.066Z,4.28
2023-05-06T12:29:08.508Z,3.90
2023-05-06T12:31:35.349Z,4.32
2023-05-06T12:34:01.728Z,3.92
2023-05-06T12:36:28.834Z,4.78
2023-05-06T12:38:57.254Z,4.50
2023-05-06T12:41:34.750Z,3.92
2023-05-06T12:44:01.128Z,4.32
2023-05-06T12:46:27.474Z,4.45
2023-05-06T12:49:00.940Z,3.90
2023-05-06T12:51:28.368Z,4.45
2023-05-06T12:53:54.854Z,4.50
2023-05-06T12:56:21.282Z,4.38
2023-05-06T12:59:01.216Z,4.35
2023-05-06T13:01:27.826Z,3.97
2023-05-06T13:03:57.286Z,5.05
2023-05-06T13:06:23.845Z,4.80
2023-05-06T13:08:50.177Z,5.00
2023-05-06T13:11:16.499Z,5.22
2023-05-06T13:13:42.787Z,4.18
2023-05-06T13:16:09.202Z,4.82
2023-05-06T13:18:35.592Z,4.35
2023-05-06T13:21:01.910Z,4.50
2023-05-06T13:23:28.232Z,4.70
2023-05-06T13:26:04.235Z,5.30
2023-05-06T13:28:32.210Z,4.63
2023-05-06T13:30:58.591Z,4.47
2023-05-06T13:33:24.924Z,5.15
2023-05-06T13:35:51.252Z,4.55
2023-05-06T13:38:17.580Z,4.10
2023-05-06T13:40:46.772Z,3.78
2023-05-06T13:43:13.114Z,3.85
2023-05-06T13:45:39.665Z,4.80
2023-05-06T13:48:06.066Z,4.07
2023-05-06T13:50:32.383Z,4.30
2023-05-06T13:52:58.707Z,4.15
2023-05-06T13:55:25.023Z,4.03
2023-05-06T13:57:51.318Z,4.38
2023-05-06T14:00:17.660Z,4.50
2023-05-06T14:02:43.971Z,3.80
2023-05-06T14:05:10.485Z,4.18
2023-05-06T14:07:38.973Z,3.83
2023-05-06T14:10:07.409Z,4.53
2023-05-06T14:12:33.806Z,3.90
2023-05-06T14:15:00.164Z,4.72
2023-05-06T14:17:26.810Z,4.63
2023-05-06T14:19:53.176Z,4.85
2023-05-06T14:22:19.504Z,3.92
2023-05-06T14:24:45.814Z,4.20
2023-05-06T14:27:12.166Z,4.60
2023-05-06T14:29:38.530Z,4.75
2023-05-06T14:32:04.912Z,4.80
2023-05-06T14:34:34.394Z,4.47
2023-05-06T14:37:00.706Z,4.43
2023-05-06T14:39:27.002Z,4.05
2023-05-06T14:41:53.571Z,4.57
2023-05-06T14:44:19.881Z,3.38
2023-05-06T14:46:46.187Z,3.00
2023-05-06T14:49:12.563Z,4.20
2023-05-06T14:51:38.879Z,4.60
2023-05-06T14:54:05.215Z,3.72
2023-05-06T14:56:31.534Z,4.00
2023-05-06T14:58:57.824Z,3.80
2023-05-06T15:01:24.319Z,3.88
2023-05-06T15:03:50.701Z,3.75
2023-05-06T15:06:17.028Z,3.13
2023-05-06T15:08:43.325Z,2.80
2023-05-06T15:11:09.648Z,3.22
2023-05-06T15:13:35.935Z,3.08
2023-05-06T15:16:02.255Z,3.60
2023-05-06T15:18:28.571Z,3.72
2023-05-06T15:20:55.018Z,2.65
2023-05-06T15:23:21.405Z,3.22
2023-05-06T15:25:47.714Z,3.00
2023-05-06T15:28:14.113Z,3.30
2023-05-06T15:30:40.425Z,2.67
2023-05-06T15:33:06.794Z,2.83
2023-05-06T15:35:33.121Z,3.20
2023-05-06T15:37:59.423Z,2.80
2023-05-06T15:40:26.667Z,2.85
2023-05-06T15:42:52.988Z,2.80
2023-05-06T15:45:19.699Z,2.97
2023-05-06T15:47:46.002Z,2.67
2023-05-06T15:50:21.178Z,2.60
2023-05-06T15:52:51.471Z,2.15
2023-05-06T15:55:19.039Z,2.13
2023-05-06T15:57:45.764Z,2.50
2023-05-06T16:00:12.853Z,2.63
2023-05-06T16:02:39.455Z,2.85
2023-05-06T16:05:06.396Z,2.70
2023-05-06T16:07:32.791Z,2.53
2023-05-06T16:09:59.146Z,2.20
2023-05-06T16:12:25.454Z,2.40
2023-05-06T16:14:51.765Z,2.60
2023-05-06T16:17:18.051Z,2.58
2023-05-06T16:19:44.329Z,2.50
2023-05-06T16:22:10.667Z,2.70
2023-05-06T16:24:36.970Z,2.50
2023-05-06T16:27:03.265Z,2.45
2023-05-06T16:29:29.568Z,2.92
2023-05-06T16:31:55.914Z,2.78
2023-05-06T16:34:22.247Z,2.65
2023-05-06T16:36:48.533Z,3.35
2023-05-06T16:39:15.053Z,3.63
2023-05-06T16:41:41.402Z,3.75
2023-05-06T16:44:07.746Z,3.38
2023-05-06T16:46:34.045Z,4.47
2023-05-06T16:49:00.416Z,4.05
2023-05-06T16:51:26.721Z,3.80
2023-05-06T16:53:53.003Z,4.68
2023-05-06T16:56:19.444Z,4.30
2023-05-06T16:58:45.737Z,4.20
2023-05-06T17:01:12.077Z,3.65
2023-05-06T17:03:38.675Z,3.63
2023-05-06T17:06:05.210Z,3.80
2023-05-06T17:08:36.069Z,3.95
2023-05-06T17:11:06.207Z,4.05
2023-05-06T17:13:32.841Z,4.47
2023-05-06T17:15:59.304Z,4.72
2023-05-06T17:18:25.707Z,3.88
2023-05-06T17:20:56.713Z,4.57
2023-05-06T17:23:23.616Z,4.43
2023-05-06T17:25:50.660Z,4.47
2023-05-06T17:28:18.495Z,4.38
2023-05-06T17:30:45.285Z,5.28
2023-05-06T17:33:11.596Z,4.63
2023-05-06T17:35:37.903Z,5.13
2023-05-06T17:38:04.204Z,5.45
2023-05-06T17:40:30.518Z,5.35
2023-05-06T17:42:56.814Z,4.80
2023-05-06T17:45:23.104Z,4.88
2023-05-06T17:47:49.472Z,6.75
2023-05-06T17:50:15.895Z,4.88
2023-05-06T17:52:42.205Z,4.90
2023-05-06T17:55:16.154Z,4.55
2023-05-06T17:57:43.561Z,5.25
2023-05-06T18:00:10.359Z,4.97
2023-05-06T18:02:36.716Z,5.18
2023-05-06T18:05:03.152Z,5.45
2023-05-06T18:07:29.461Z,5.57
2023-05-06T18:09:55.760Z,6.35
2023-05-06T18:12:22.215Z,5.50
2023-05-06T18:14:48.505Z,6.10
2023-05-06T18:17:14.800Z,6.03
2023-05-06T18:19:41.085Z,5.55
2023-05-06T18:22:07.397Z,5.55
2023-05-06T18:24:33.679Z,5.30
2023-05-06T18:27:00.135Z,5.10
2023-05-06T18:29:26.437Z,5.53
2023-05-06T18:31:52.855Z,5.80
2023-05-06T18:34:19.189Z,6.55
2023-05-06T18:36:45.598Z,5.97
2023-05-06T18:39:12.010Z,5.80
2023-05-06T18:41:38.304Z,5.47
2023-05-06T18:44:04.906Z,5.10
2023-05-06T18:46:31.508Z,5.65
2023-05-06T18:48:57.839Z,5.55
2023-05-06T18:51:24.176Z,6.18
2023-05-06T18:53:50.519Z,5.60
2023-05-06T18:56:16.878Z,6.05
2023-05-06T18:58:43.216Z,5.57
2023-05-06T19:01:10.191Z,5.50
2023-05-06T19:03:37.507Z,5.80
2023-05-06T19:06:05.892Z,6.65
2023-05-06T19:08:32.208Z,5.70
2023-05-06T19:10:59.904Z,6.32
2023-05-06T19:13:26.902Z,6.57
2023-05-06T19:15:53.525Z,6.55
2023-05-06T19:18:19.920Z,6.35
2023-05-06T19:20:46.515Z,6.70
2023-05-06T19:23:12.815Z,5.82
2023-05-06T19:25:39.639Z,6.68
2023-05-06T19:28:06.201Z,7.18
2023-05-06T19:30:34.379Z,6.97
2023-05-06T19:33:01.705Z,7.18
2023-05-06T19:35:28.052Z,7.75
2023-05-06T19:37:54.373Z,8.27
2023-05-06T19:40:20.705Z,7.18
2023-05-06T19:42:47.079Z,6.88
2023-05-06T19:45:15.397Z,6.63
2023-05-06T19:47:42.882Z,6.80
2023-05-06T19:50:09.647Z,7.00
2023-05-06T19:52:36.060Z,6.90
2023-05-06T19:55:02.369Z,6.50
2023-05-06T19:57:29.058Z,6.38
2023-05-06T19:59:55.365Z,6.05
2023-05-06T20:02:21.671Z,6.88
2023-05-06T20:04:47.993Z,6.35
2023-05-06T20:07:14.814Z,6.20
2023-05-06T20:09:41.145Z,6.25
2023-05-06T20:12:07.533Z,6.07
2023-05-06T20:14:33.829Z,5.65
2023-05-06T20:17:00.172Z,5.70
2023-05-06T20:19:26.475Z,6.32
2023-05-06T20:21:52.789Z,6.18
2023-05-06T20:24:19.088Z,6.55
2023-05-06T20:26:45.623Z,5.85
2023-05-06T20:29:11.934Z,6.22
2023-05-06T20:31:38.295Z,6.53
2023-05-06T20:34:04.642Z,5.57
2023-05-06T20:36:30.960Z,6.22
2023-05-06T20:38:57.251Z,5.80
2023-05-06T20:41:23.599Z,7.25
2023-05-06T20:43:51.199Z,7.13
2023-05-06T20:46:17.563Z,7.57
2023-05-06T20:48:43.894Z,7.43
2023-05-06T20:51:10.204Z,7.90
2023-05-06T20:53:36.535Z,7.53
2023-05-06T20:56:02.826Z,8.30
2023-05-06T20:58:29.129Z,8.30
2023-05-06T21:00:55.456Z,8.07
2023-05-06T21:03:21.856Z,8.07
2023-05-06T21:05:48.304Z,8.90
2023-05-06T21:08:14.704Z,8.82
2023-05-06T21:10:41.028Z,9.15
2023-05-06T21:13:07.419Z,9.57
2023-05-06T21:15:34.091Z,9.85
2023-05-06T21:18:00.435Z,9.27
2023-05-06T21:20:26.827Z,10.60
2023-05-06T21:22:53.127Z,10.70
2023-05-06T21:25:19.577Z,10.70
2023-05-06T21:27:45.926Z,11.82
2023-05-06T21:30:12.648Z,12.02
2023-05-06T21:32:39.042Z,13.13
2023-05-06T21:35:05.900Z,12.95
2023-05-06T21:37:32.243Z,13.82
2023-05-06T21:39:58.595Z,13.68
2023-05-06T21:42:24.910Z,13.23
2023-05-06T21:44:51.225Z,13.95
2023-05-06T21:47:17.558Z,15.18
2023-05-06T21:49:43.881Z,14.48
2023-05-06T21:52:10.190Z,14.98
2023-05-06T21:54:36.492Z,14.82
2023-05-06T21:57:02.777Z,14.65
2023-05-06T21:59:29.083Z,15.40
2023-05-06T22:01:55.441Z,16.08
2023-05-06T22:04:21.794Z,16.30
2023-05-06T22:06:48.113Z,15.60
2023-05-06T22:09:14.412Z,15.27
2023-05-06T22:11:40.717Z,16.02
2023-05-06T22:14:07.179Z,16.80
2023-05-06T22:16:34.206Z,15.40
2023-05-06T22:19:01.183Z,15.90
2023-05-06T22:21:29.046Z,16.17
2023-05-06T22:23:55.355Z,16.02
2023-05-06T22:26:21.661Z,16.50
2023-05-06T22:28:48.014Z,17.38
2023-05-06T22:31:14.330Z,19.83
2023-05-06T22:33:40.775Z,19.27
2023-05-06T22:36:07.497Z,19.67
2023-05-06T22:38:33.799Z,20.50
2023-05-06T22:41:00.131Z,19.05
2023-05-06T22:43:26.418Z,19.95
2023-05-06T22:45:52.782Z,21.35
2023-05-06T22:48:19.132Z,21.17
2023-05-06T22:50:45.432Z,21.80
2023-05-06T22:53:15.463Z,21.85
2023-05-06T22:55:42.243Z,21.52
2023-05-06T22:58:08.565Z,21.23
2023-05-06T23:00:34.906Z,22.00
2023-05-06T23:03:01.273Z,21.83
2023-05-06T23:05:27.579Z,21.08
2023-05-06T23:07:53.928Z,21.70
2023-05-06T23:10:20.264Z,21.48
2023-05-06T23:12:46.629Z,20.60
2023-05-06T23:15:13.053Z,20.88
2023-05-06T23:17:39.489Z,19.60
2023-05-06T23:20:06.491Z,20.73
2023-05-06T23:22:32.794Z,21.60
2023-05-06T23:24:59.105Z,19.30
2023-05-06T23:27:25.416Z,21.05
2023-05-06T23:29:51.754Z,21.25
2023-05-06T23:32:18.056Z,20.80
2023-05-06T23:34:44.490Z,19.70
2023-05-06T23:37:10.820Z,21.38
2023-05-06T23:39:37.274Z,21.35
2023-05-06T23:42:03.628Z,19.90
2023-05-06T23:44:29.927Z,19.80
2023-05-06T23:46:56.409Z,21.02
2023-05-06T23:49:22.774Z,20.42
2023-05-06T23:51:49.132Z,20.25
2023-05-06T23:54:15.420Z,20.40
2023-05-06T23:56:41.800Z,20.08
2023-05-06T23:59:08.137Z,19.85
